Time;durP1;ratioP1;P1;durP2;ratioP2;P2;SDS_P1;SDS_P2;PMS_P1;PMS_P2;Temp;Humidity;BMP_temperature;BMP_pressure;BME280_temperature;BME280_humidity;BME280_pressure;Samples;Min_cycle;Max_cycle;Signal;HPM_P1;HPM_P2
2022/06/15 00:00:05;;;;;;;15.23;7.30;;;;;;;15.36;77.53;102122.56;6237344;23;20145;-67
2022/06/15 00:02:30;;;;;;;13.18;7.00;;;;;;;15.31;77.48;102120.94;6238816;23;20007;-68
2022/06/15 00:04:56;;;;;;;9.55;6.90;;;;;;;15.27;77.64;102123.69;6237851;23;20000;-67
2022/06/15 00:07:21;;;;;;;10.38;7.57;;;;;;;15.24;77.70;102120.28;6238701;23;20008;-67
2022/06/15 00:09:46;;;;;;;13.63;6.82;;;;;;;15.21;77.86;102115.97;6236979;23;20004;-68
2022/06/15 00:12:12;;;;;;;13.32;7.28;;;;;;;15.23;77.92;102113.25;6237394;23;20013;-67
2022/06/15 00:14:37;;;;;;;11.13;6.82;;;;;;;15.14;78.42;102107.31;6236941;23;20004;-66
2022/06/15 00:17:03;;;;;;;10.93;6.30;;;;;;;15.19;78.04;102111.59;6209292;23;20100;-66
2022/06/15 00:19:28;;;;;;;8.55;6.32;;;;;;;15.15;77.91;102116.16;6236888;23;20443;-67
2022/06/15 00:21:54;;;;;;;8.93;6.85;;;;;;;15.16;77.89;102116.13;6237392;23;19988;-67
2022/06/15 00:24:19;;;;;;;13.30;7.57;;;;;;;15.18;78.21;102116.06;6237210;23;20062;-68
2022/06/15 00:26:45;;;;;;;16.73;6.95;;;;;;;15.20;78.27;102113.34;6237150;23;20361;-66
2022/06/15 00:29:10;;;;;;;12.60;6.95;;;;;;;15.18;78.00;102113.41;6210318;23;20008;-67
2022/06/15 00:31:36;;;;;;;13.20;6.57;;;;;;;15.14;78.32;102112.63;6235784;23;20004;-67
2022/06/15 00:34:02;;;;;;;13.45;6.72;;;;;;;15.08;78.30;102104.84;6237136;23;20012;-65
2022/06/15 00:36:29;;;;;;;13.02;7.28;;;;;;;15.09;78.45;102106.63;6236727;23;20087;-67
2022/06/15 00:38:56;;;;;;;11.57;7.03;;;;;;;15.07;78.66;102105.78;6237201;23;20077;-67
2022/06/15 00:41:30;;;;;;;11.90;7.53;;;;;;;15.04;78.68;102097.91;6237552;23;20019;-67
2022/06/15 00:43:59;;;;;;;17.88;8.18;;;;;;;14.98;79.00;102103.44;6237445;23;20000;-67
2022/06/15 00:46:39;;;;;;;12.97;7.70;;;;;;;15.05;78.50;102107.59;6208491;23;19998;-68
2022/06/15 00:49:09;;;;;;;12.07;7.45;;;;;;;15.01;78.69;102113.94;6209505;23;20095;-69
2022/06/15 00:51:35;;;;;;;10.98;6.82;;;;;;;14.95;78.88;102109.72;6208968;23;20004;-67
2022/06/15 00:54:01;;;;;;;13.43;6.63;;;;;;;14.96;78.73;102110.59;6210517;23;20004;-68
2022/06/15 00:56:28;;;;;;;13.02;7.63;;;;;;;14.98;78.76;102100.78;6234616;23;20023;-67
2022/06/15 00:58:56;;;;;;;10.38;7.70;;;;;;;14.89;78.95;102099.28;6235491;23;20000;-68
2022/06/15 01:01:22;;;;;;;13.07;6.90;;;;;;;14.88;78.71;102100.22;6207627;23;20468;-69
2022/06/15 01:03:49;;;;;;;13.27;7.25;;;;;;;14.89;79.03;102094.84;6217986;22;20336;-67
2022/06/15 01:06:27;;;;;;;10.07;6.95;;;;;;;14.88;78.86;102082.50;6234186;23;20075;-67
2022/06/15 01:09:06;;;;;;;12.43;6.82;;;;;;;14.81;78.90;102088.91;6236027;22;20012;-67
2022/06/15 01:11:46;;;;;;;10.38;7.45;;;;;;;14.73;79.21;102083.84;6235033;23;20008;-65
2022/06/15 01:14:49;;;;;;;11.55;8.02;;;;;;;14.69;79.52;102083.97;6236745;22;20061;-67
2022/06/15 01:17:17;;;;;;;12.73;7.65;;;;;;;14.71;79.41;102084.78;6237203;23;20038;-66
2022/06/15 01:19:55;;;;;;;13.73;7.57;;;;;;;14.72;79.33;102082.06;6235460;22;20004;-67
2022/06/15 01:22:45;;;;;;;9.38;6.80;;;;;;;14.66;79.32;102087.59;6235080;23;20477;-67
2022/06/15 01:25:28;;;;;;;11.98;7.43;;;;;;;14.59;79.68;102088.69;6235851;22;20095;-65
2022/06/15 01:28:17;;;;;;;10.82;7.15;;;;;;;14.57;79.58;102083.44;6237120;22;20073;-67
2022/06/15 01:30:50;;;;;;;17.42;8.45;;;;;;;14.56;79.53;102088.78;6207176;22;20027;-67
2022/06/15 01:33:39;;;;;;;12.77;8.88;;;;;;;14.57;79.70;102083.44;6236853;22;20443;-68
2022/06/15 01:36:07;;;;;;;12.45;7.78;;;;;;;14.52;79.80;102080.94;6235667;23;20005;-67
2022/06/15 01:39:04;;;;;;;10.48;7.53;;;;;;;14.48;80.13;102083.72;6235493;22;20037;-67
2022/06/15 01:41:45;;;;;;;11.27;7.47;;;;;;;14.45;80.07;102076.72;6237028;22;20008;-67
2022/06/15 01:44:18;;;;;;;15.93;7.88;;;;;;;14.42;80.33;102079.47;6235176;22;20078;-67
2022/06/15 01:46:45;;;;;;;11.57;8.13;;;;;;;14.40;80.05;102074.22;6234711;23;20000;-66
2022/06/15 01:49:16;;;;;;;12.48;7.68;;;;;;;14.34;80.84;102077.06;6236698;22;20008;-67
2022/06/15 01:51:43;;;;;;;14.25;7.95;;;;;;;14.37;80.72;102079.63;6237322;22;20050;-67
2022/06/15 01:54:11;;;;;;;10.63;7.57;;;;;;;14.32;81.06;102073.56;6234549;23;20000;-67
2022/06/15 01:56:40;;;;;;;12.60;7.35;;;;;;;14.37;80.62;102071.66;6235194;23;20000;-67
2022/06/15 01:59:43;;;;;;;14.63;8.35;;;;;;;14.37;80.98;102065.50;6235204;23;20012;-66
2022/06/15 02:02:17;;;;;;;12.55;7.60;;;;;;;14.35;81.12;102062.88;6237995;22;20075;-66
2022/06/15 02:05:13;;;;;;;11.70;7.20;;;;;;;14.28;81.21;102063.97;6239179;22;20499;-67
2022/06/15 02:07:50;;;;;;;11.38;7.18;;;;;;;14.26;81.37;102057.84;6239133;23;20005;-66
2022/06/15 02:10:43;;;;;;;15.00;8.50;;;;;;;14.26;81.42;102052.53;6211859;23;20363;-67
2022/06/15 02:13:14;;;;;;;13.82;8.38;;;;;;;14.27;81.20;102054.31;6238717;23;19996;-68
2022/06/15 02:15:42;;;;;;;10.68;6.65;;;;;;;14.23;81.48;102057.94;6237329;23;20383;-67
2022/06/15 02:18:10;;;;;;;14.77;7.90;;;;;;;14.26;81.42;102052.53;6210466;23;20075;-67
2022/06/15 02:20:39;;;;;;;12.93;7.83;;;;;;;14.26;81.44;102049.91;6239322;23;20007;-68
2022/06/15 02:23:07;;;;;;;13.27;7.38;;;;;;;14.22;81.86;102054.44;6212019;23;20007;-68
2022/06/15 02:25:35;;;;;;;14.77;8.27;;;;;;;14.18;81.95;102051.91;6212412;23;20001;-66
2022/06/15 02:28:02;;;;;;;14.60;7.93;;;;;;;14.13;81.90;102047.63;6186109;23;20015;-65
2022/06/15 02:30:29;;;;;;;13.65;9.25;;;;;;;14.12;81.98;102043.22;6236455;23;20443;-67
2022/06/15 02:32:54;;;;;;;13.82;8.48;;;;;;;14.14;81.88;102054.66;6210699;23;20000;-68
2022/06/15 02:35:20;;;;;;;8.30;7.25;;;;;;;14.09;82.14;102050.41;6236411;23;20047;-66
2022/06/15 02:37:47;;;;;;;17.05;8.50;;;;;;;14.05;82.62;102054.91;6238349;23;20054;-67
2022/06/15 02:40:15;;;;;;;17.00;7.40;;;;;;;14.03;82.74;102043.53;6237175;23;20011;-66
2022/06/15 02:42:40;;;;;;;12.10;8.15;;;;;;;14.03;82.50;102046.16;6238938;23;20000;-66
2022/06/15 02:45:13;;;;;;;15.27;8.55;;;;;;;13.98;82.79;102041.00;6236518;23;20596;-67
2022/06/15 02:47:41;;;;;;;12.63;7.88;;;;;;;13.96;82.79;102041.94;6211806;23;20090;-66
2022/06/15 02:50:08;;;;;;;13.85;8.45;;;;;;;13.98;83.13;102040.13;6211824;23;20375;-68
2022/06/15 02:52:38;;;;;;;19.02;8.57;;;;;;;13.96;82.98;102045.47;6237270;23;19992;-67
2022/06/15 02:55:04;;;;;;;12.40;8.25;;;;;;;13.89;83.77;102043.91;6210867;23;20031;-66
2022/06/15 02:57:30;;;;;;;12.77;8.38;;;;;;;13.89;83.37;102042.13;6211052;23;20023;-69
2022/06/15 02:59:55;;;;;;;14.05;8.00;;;;;;;13.93;83.49;102039.41;6237990;23;20005;-67
2022/06/15 03:02:21;;;;;;;15.40;8.43;;;;;;;13.90;83.53;102038.56;6238252;23;20552;-67
2022/06/15 03:04:47;;;;;;;14.95;8.20;;;;;;;13.89;83.44;102034.19;6238461;23;20063;-68
2022/06/15 03:07:13;;;;;;;17.17;8.23;;;;;;;13.83;83.67;102034.34;6238345;23;20040;-66
2022/06/15 03:09:39;;;;;;;13.75;8.07;;;;;;;13.88;83.52;102039.53;6238009;23;20000;-67
2022/06/15 03:12:06;;;;;;;18.50;8.75;;;;;;;13.93;83.98;102036.75;6238063;23;20008;-66
2022/06/15 03:14:32;;;;;;;12.45;8.38;;;;;;;13.93;83.80;102037.59;6236390;23;20032;-64
2022/06/15 03:16:58;;;;;;;14.40;8.43;;;;;;;13.90;83.67;102038.56;6238519;23;20101;-67
2022/06/15 03:19:23;;;;;;;16.00;8.18;;;;;;;13.86;84.19;102028.09;6238053;23;20004;-66
2022/06/15 03:21:48;;;;;;;13.77;8.10;;;;;;;13.83;84.19;102034.34;6238715;23;20026;-67
2022/06/15 03:24:14;;;;;;;14.98;8.88;;;;;;;13.81;84.32;102030.88;6237907;23;20087;-67
2022/06/15 03:26:39;;;;;;;13.75;7.82;;;;;;;13.75;84.55;102036.34;6238008;23;20007;-66
2022/06/15 03:29:06;;;;;;;12.45;8.15;;;;;;;13.74;84.47;102034.59;6237961;23;20008;-67
2022/06/15 03:31:31;;;;;;;10.40;7.88;;;;;;;13.77;84.14;102024.81;6236667;23;20079;-64
2022/06/15 03:33:57;;;;;;;13.93;8.30;;;;;;;13.77;84.21;102032.75;6238188;23;20023;-67
2022/06/15 03:36:22;;;;;;;11.82;7.95;;;;;;;13.74;84.75;102032.84;6238034;23;20000;-66
2022/06/15 03:38:47;;;;;;;14.05;7.93;;;;;;;13.77;84.23;102039.81;6238118;23;20005;-66
2022/06/15 03:41:13;;;;;;;16.50;8.52;;;;;;;13.79;84.13;102037.13;6238075;23;20004;-68
2022/06/15 03:43:39;;;;;;;14.35;7.55;;;;;;;13.81;84.29;102046.75;6210909;23;20346;-69
2022/06/15 03:46:04;;;;;;;13.40;8.50;;;;;;;13.82;84.05;102045.84;6208720;23;20083;-66
2022/06/15 03:48:30;;;;;;;10.55;7.75;;;;;;;13.79;84.13;102045.09;6237489;23;20102;-68
2022/06/15 03:50:55;;;;;;;11.60;8.07;;;;;;;13.88;83.46;102047.47;6235999;23;20022;-68
2022/06/15 03:53:20;;;;;;;11.90;7.03;;;;;;;13.83;83.97;102050.25;6237642;23;20310;-67
2022/06/15 03:55:46;;;;;;;13.10;7.30;;;;;;;13.90;83.69;102054.47;6237257;23;20011;-66
2022/06/15 03:58:13;;;;;;;10.93;7.75;;;;;;;13.96;83.18;102060.47;6237710;23;20432;-65
2022/06/15 04:00:38;;;;;;;9.27;7.00;;;;;;;13.90;83.12;102053.59;6237186;23;20618;-69
2022/06/15 04:03:04;;;;;;;11.23;7.65;;;;;;;13.89;83.29;102049.22;6237436;23;20000;-67
2022/06/15 04:05:35;;;;;;;10.85;7.07;;;;;;;13.94;83.08;102044.63;6238786;23;20099;-66
2022/06/15 04:10:45;;;;;;;10.48;6.75;;;;;;;14.06;82.29;102050.50;6237309;23;20455;-66
2022/06/15 04:13:10;;;;;;;11.52;7.25;;;;;;;14.10;81.73;102052.13;6235880;23;20004;-67
2022/06/15 04:15:36;;;;;;;12.10;7.50;;;;;;;14.09;82.30;102043.31;6237241;23;20011;-68
2022/06/15 04:18:02;;;;;;;14.73;6.85;;;;;;;14.09;82.06;102045.13;6236642;23;20444;-67
2022/06/15 04:20:33;;;;;;;13.82;6.32;;;;;;;14.18;81.53;102044.81;6238175;23;20053;-67
2022/06/15 04:23:12;;;;;;;11.23;6.43;;;;;;;14.21;81.37;102043.88;6238003;23;20109;-66
2022/06/15 04:25:51;;;;;;;10.27;5.97;;;;;;;14.28;81.21;102046.31;6211113;23;20004;-66
2022/06/15 04:28:18;;;;;;;11.90;6.82;;;;;;;14.21;81.49;102038.56;6210639;23;20004;-67
2022/06/15 04:30:43;;;;;;;13.65;6.28;;;;;;;14.26;81.00;102041.94;6235961;23;20000;-65
2022/06/15 04:33:11;;;;;;;8.98;5.65;;;;;;;14.37;80.74;102054.88;6210306;23;20011;-66
2022/06/15 04:35:37;;;;;;;9.52;5.60;;;;;;;14.40;80.76;102047.72;6237559;23;20066;-68
2022/06/15 04:38:03;;;;;;;7.60;5.70;;;;;;;14.43;80.68;102045.88;6236044;23;20397;-66
2022/06/15 04:40:28;;;;;;;10.77;5.30;;;;;;;14.56;80.39;102046.34;6238256;23;20000;-66
2022/06/15 04:42:54;;;;;;;8.63;5.80;;;;;;;14.63;79.59;102047.91;6237325;23;20381;-67
2022/06/15 04:45:19;;;;;;;8.02;5.50;;;;;;;14.66;79.56;102048.66;6236729;23;20024;-67
2022/06/15 04:47:45;;;;;;;7.10;5.38;;;;;;;14.72;79.40;102046.75;6237681;23;20008;-66
2022/06/15 04:50:13;;;;;;;10.38;5.22;;;;;;;14.83;78.85;102051.72;6236652;23;20434;-66
2022/06/15 04:52:43;;;;;;;9.88;5.70;;;;;;;14.82;78.81;102048.22;6210374;23;20427;-67
2022/06/15 04:55:10;;;;;;;10.20;4.80;;;;;;;14.94;78.48;102048.72;6238062;23;20004;-66
2022/06/15 04:57:36;;;;;;;8.32;5.30;;;;;;;14.99;77.83;102052.09;6238003;23;20088;-67
2022/06/15 05:00:05;;;;;;;9.10;4.95;;;;;;;15.02;77.74;102052.00;6236472;23;20310;-65
2022/06/15 05:02:31;;;;;;;9.00;4.82;;;;;;;15.15;76.88;102044.47;6210673;23;20011;-68
2022/06/15 05:04:59;;;;;;;14.60;4.70;;;;;;;15.20;76.82;102044.34;6236722;23;20368;-68
2022/06/15 05:07:24;;;;;;;11.93;5.20;;;;;;;15.29;76.28;102044.00;6234516;23;20007;-68
2022/06/15 05:09:51;;;;;;;11.32;4.68;;;;;;;15.29;76.22;102057.25;6236956;23;20601;-67
2022/06/15 05:12:17;;;;;;;8.70;4.40;;;;;;;15.39;76.04;102052.53;6236516;23;19999;-69
2022/06/15 05:14:46;;;;;;;11.25;5.38;;;;;;;15.48;75.62;102053.97;6235656;23;20000;-66
2022/06/15 05:17:11;;;;;;;9.48;5.18;;;;;;;15.53;75.08;102044.94;6236613;23;20515;-67
2022/06/15 05:19:36;;;;;;;7.32;3.97;;;;;;;15.60;75.23;102050.03;6236783;23;20024;-66
2022/06/15 05:22:02;;;;;;;7.68;4.13;;;;;;;15.66;75.00;102041.84;6236334;23;20079;-67
2022/06/15 05:24:28;;;;;;;8.60;4.57;;;;;;;15.75;74.80;102043.28;6210864;23;20048;-67
2022/06/15 05:26:54;;;;;;;9.70;5.13;;;;;;;15.80;74.65;102043.97;6236221;23;20008;-67
2022/06/15 05:29:19;;;;;;;8.20;4.80;;;;;;;15.92;74.20;102045.31;6235832;23;20000;-68
2022/06/15 05:31:44;;;;;;;7.10;4.10;;;;;;;15.94;74.04;102042.59;6210286;23;20015;-66
2022/06/15 05:34:10;;;;;;;8.88;4.40;;;;;;;15.97;74.08;102047.81;6236743;23;20110;-66
2022/06/15 05:36:36;;;;;;;12.32;4.97;;;;;;;15.97;73.35;102042.50;6235998;23;20084;-67
2022/06/15 05:39:03;;;;;;;6.45;4.35;;;;;;;16.06;72.53;102036.84;6236890;23;20011;-64
2022/06/15 05:41:28;;;;;;;7.95;4.90;;;;;;;16.16;72.36;102040.00;6235617;23;20005;-67
2022/06/15 05:43:56;;;;;;;6.82;3.88;;;;;;;16.30;72.27;102042.16;6236100;23;20634;-70
2022/06/15 05:46:33;;;;;;;10.13;4.30;;;;;;;16.38;72.13;102049.84;6235735;23;20248;-63
2022/06/15 05:49:01;;;;;;;7.20;3.92;;;;;;;16.53;71.21;102048.38;6235940;23;20011;-65
2022/06/15 05:51:27;;;;;;;10.82;3.95;;;;;;;16.68;70.15;102055.72;6236549;23;20000;-64
2022/06/15 05:53:53;;;;;;;14.52;4.03;;;;;;;16.82;69.75;102058.75;6234729;23;20010;-65
2022/06/15 05:56:18;;;;;;;8.93;4.18;;;;;;;16.82;69.40;102048.97;6237037;23;20091;-65
2022/06/15 05:58:44;;;;;;;8.00;3.78;;;;;;;16.86;69.34;102053.22;6235672;23;20000;-64
2022/06/15 06:01:11;;;;;;;6.72;3.50;;;;;;;16.96;69.04;102047.53;6235669;23;20000;-63
2022/06/15 06:03:36;;;;;;;11.27;3.67;;;;;;;17.06;68.69;102051.53;6235974;23;20629;-65
2022/06/15 06:06:02;;;;;;;11.88;4.18;;;;;;;17.09;68.66;102056.75;6236110;23;20007;-64
2022/06/15 06:08:27;;;;;;;9.80;3.75;;;;;;;17.24;68.77;102060.56;6237170;23;20031;-68
2022/06/15 06:10:53;;;;;;;9.77;3.88;;;;;;;17.33;68.31;102053.97;6236597;23;20132;-65
2022/06/15 06:13:18;;;;;;;7.38;3.20;;;;;;;17.48;68.04;102062.22;6208946;23;20011;-63
2022/06/15 06:15:43;;;;;;;9.57;3.80;;;;;;;17.54;67.84;102067.28;6234779;23;20364;-63
2022/06/15 06:18:09;;;;;;;10.05;3.38;;;;;;;17.68;67.24;102058.69;6208651;23;20084;-64
2022/06/15 06:20:34;;;;;;;11.52;3.90;;;;;;;17.75;66.53;102056.59;6236620;23;20031;-65
2022/06/15 06:22:59;;;;;;;12.40;3.65;;;;;;;17.86;66.04;102059.69;6236496;23;20035;-64
2022/06/15 06:25:25;;;;;;;6.68;3.58;;;;;;;17.94;66.25;102057.50;6235711;23;20000;-65
2022/06/15 06:27:50;;;;;;;13.18;3.95;;;;;;;17.88;66.42;102051.59;6235802;23;20295;-64
2022/06/15 06:30:16;;;;;;;7.38;3.65;;;;;;;17.93;66.16;102052.25;6234977;23;20050;-64
2022/06/15 06:32:41;;;;;;;6.45;3.65;;;;;;;18.02;65.87;102053.63;6212367;23;20005;-64
2022/06/15 06:35:07;;;;;;;8.35;4.20;;;;;;;17.80;66.60;102054.63;6236865;23;20189;-65
2022/06/15 06:37:35;;;;;;;11.27;3.78;;;;;;;18.00;65.09;102061.69;6235849;23;19996;-65
2022/06/15 06:40:00;;;;;;;10.70;3.60;;;;;;;18.14;64.54;102061.09;6210459;23;20015;-65
2022/06/15 06:42:25;;;;;;;9.88;3.92;;;;;;;18.30;64.12;102055.91;6235076;23;20479;-64
2022/06/15 06:44:51;;;;;;;9.63;3.20;;;;;;;18.46;64.35;102056.97;6235101;23;20007;-64
2022/06/15 06:47:17;;;;;;;12.13;3.92;;;;;;;18.65;63.49;102068.50;6235218;23;20004;-64
2022/06/15 06:49:42;;;;;;;11.70;4.18;;;;;;;18.62;63.33;102062.41;6237961;23;20004;-64
2022/06/15 06:52:08;;;;;;;8.18;3.42;;;;;;;18.67;63.86;102069.25;6237729;23;20004;-65
2022/06/15 06:54:33;;;;;;;9.18;3.80;;;;;;;18.75;63.19;102066.22;6237482;23;19988;-65
2022/06/15 06:56:59;;;;;;;7.03;2.95;;;;;;;18.91;62.98;102071.66;6238633;23;20011;-65
2022/06/15 06:59:24;;;;;;;7.72;3.50;;;;;;;19.01;63.05;102071.19;6236519;23;20020;-64
2022/06/15 07:01:49;;;;;;;8.52;3.90;;;;;;;19.00;63.12;102077.50;6236681;23;20434;-64
2022/06/15 07:04:16;;;;;;;7.03;2.90;;;;;;;19.09;62.85;102077.06;6236490;23;20010;-65
2022/06/15 07:06:42;;;;;;;8.02;3.42;;;;;;;19.10;62.34;102075.25;6238588;23;20039;-64
2022/06/15 07:09:08;;;;;;;10.00;3.47;;;;;;;19.19;61.29;102081.00;6237987;23;20015;-72
2022/06/15 07:11:34;;;;;;;7.45;2.60;;;;;;;19.34;61.06;102077.59;6237977;23;20008;-65
2022/06/15 07:13:59;;;;;;;7.63;3.50;;;;;;;19.37;61.10;102080.13;6236288;23;20090;-64
2022/06/15 07:16:25;;;;;;;9.63;3.35;;;;;;;19.33;59.77;102079.44;6237175;23;20421;-63
2022/06/15 07:18:50;;;;;;;8.68;3.58;;;;;;;19.47;59.81;102080.53;6236833;23;20091;-64
2022/06/15 07:21:18;;;;;;;10.98;3.35;;;;;;;19.64;60.79;102082.28;6235842;23;20000;-65
2022/06/15 07:23:47;;;;;;;4.25;2.67;;;;;;;19.74;61.19;102086.22;6237570;23;20018;-64
2022/06/15 07:26:26;;;;;;;5.30;3.30;;;;;;;19.67;59.79;102085.69;6237860;23;20455;-64
2022/06/15 07:28:51;;;;;;;;;;;;;;;19.83;60.31;102087.53;6237483;23;20323;-64
2022/06/15 07:31:33;;;;;;;5.53;2.80;;;;;;;19.99;59.75;102081.34;6210686;23;20334;-64
2022/06/15 07:33:59;;;;;;;7.20;3.05;;;;;;;20.07;58.97;102088.06;6237454;23;20000;-67
2022/06/15 07:36:25;;;;;;;11.70;3.53;;;;;;;19.86;59.14;102084.69;6210439;23;20004;-68
2022/06/15 07:38:52;;;;;;;9.30;3.03;;;;;;;20.18;58.74;102084.78;6236421;23;20004;-66
2022/06/15 07:41:17;;;;;;;8.82;3.13;;;;;;;20.29;58.37;102080.66;6237290;23;20004;-65
2022/06/15 07:43:43;;;;;;;6.55;2.63;;;;;;;20.44;57.89;102095.00;6236840;23;20012;-66
2022/06/15 07:46:08;;;;;;;11.60;3.15;;;;;;;20.54;57.12;102089.97;6236924;23;20008;-64
2022/06/15 07:51:38;;;;;;;7.13;2.97;;;;;;;20.61;56.30;102091.34;6235873;23;20110;-66
2022/06/15 07:54:05;;;;;;;5.65;2.60;;;;;;;20.78;56.05;102087.72;6237344;23;20004;-65
2022/06/15 07:56:32;;;;;;;7.85;2.67;;;;;;;20.84;55.92;102087.34;6210283;23;19992;-67
2022/06/15 07:58:58;;;;;;;7.13;2.25;;;;;;;20.74;55.81;102085.31;6236211;23;20207;-66
2022/06/15 08:01:23;;;;;;;6.85;2.38;;;;;;;20.92;55.55;102083.41;6236493;23;20504;-66
2022/06/15 08:03:49;;;;;;;9.30;2.75;;;;;;;20.87;53.54;102086.31;6235047;23;20062;-71
2022/06/15 08:06:15;;;;;;;7.53;2.53;;;;;;;21.04;54.13;102087.19;6235652;23;20379;-67
2022/06/15 08:08:41;;;;;;;5.75;2.38;;;;;;;20.72;54.15;102085.38;6237487;23;20004;-67
2022/06/15 08:11:06;;;;;;;13.35;3.35;;;;;;;20.76;54.54;102086.06;6235493;23;20000;-66
2022/06/15 08:13:32;;;;;;;6.28;2.05;;;;;;;20.59;52.81;102085.25;6236623;23;20051;-65
2022/06/15 08:15:57;;;;;;;6.93;2.22;;;;;;;20.90;52.46;102088.84;6237324;23;20357;-65
2022/06/15 08:18:26;;;;;;;5.90;2.25;;;;;;;21.17;51.94;102085.50;6237142;23;20336;-65
2022/06/15 08:21:01;;;;;;;10.90;2.20;;;;;;;21.23;51.94;102094.13;6236245;23;20000;-64
2022/06/15 08:23:29;;;;;;;8.50;2.28;;;;;;;21.05;51.56;102086.22;6210977;23;20004;-65
2022/06/15 08:25:57;;;;;;;11.23;2.60;;;;;;;21.15;51.63;102083.84;6209971;23;20413;-64
2022/06/15 08:28:26;;;;;;;7.93;2.30;;;;;;;21.01;51.88;102090.88;6209714;23;20008;-63
2022/06/15 08:30:52;;;;;;;5.57;2.17;;;;;;;21.01;50.03;102085.53;6238289;23;20004;-68
2022/06/15 08:33:18;;;;;;;11.52;2.13;;;;;;;21.25;50.04;102095.75;6210335;23;20000;-68
2022/06/15 08:35:43;;;;;;;7.10;2.08;;;;;;;21.49;49.92;102091.69;6210146;23;20027;-68
2022/06/15 08:38:12;;;;;;;5.78;2.13;;;;;;;20.94;49.41;102093.06;6236981;23;20420;-65
2022/06/15 08:40:59;;;;;;;5.18;1.73;;;;;;;20.84;49.30;102081.13;6236341;23;20012;-66
2022/06/15 08:43:55;;;;;;;12.35;2.42;;;;;;;21.15;48.72;102091.88;6235835;23;20018;-65
2022/06/15 08:46:45;;;;;;;6.88;2.15;;;;;;;21.06;47.72;102090.63;6236232;23;20008;-73
2022/06/15 08:49:42;;;;;;;6.93;2.30;;;;;;;20.93;48.05;102091.34;6236473;23;20062;-69
2022/06/15 08:52:20;;;;;;;11.98;2.03;;;;;;;20.97;48.22;102097.38;6208457;23;20076;-71
2022/06/15 08:55:03;;;;;;;9.07;2.38;;;;;;;21.13;48.75;102089.28;6209025;23;20086;-62
2022/06/15 08:57:40;;;;;;;7.10;1.80;;;;;;;21.05;47.72;102086.22;6237071;23;20028;-65
2022/06/15 09:00:22;;;;;;;7.70;2.13;;;;;;;21.13;47.33;102089.28;6235706;23;20008;-65
2022/06/15 09:03:15;;;;;;;6.13;2.13;;;;;;;21.07;47.68;102084.31;6235926;23;20023;-69
2022/06/15 09:06:03;;;;;;;6.82;1.70;;;;;;;21.33;47.64;102071.16;6234660;23;20008;-69
2022/06/15 09:08:32;;;;;;;8.27;2.50;;;;;;;21.44;47.34;102079.44;6236694;23;20063;-65
2022/06/15 09:11:25;;;;;;;7.22;2.22;;;;;;;21.24;47.43;102085.09;6209682;23;20007;-62
2022/06/15 09:14:01;;;;;;;6.18;1.80;;;;;;;21.48;46.92;102079.22;6235758;23;20356;-63
2022/06/15 09:16:40;;;;;;;13.27;2.53;;;;;;;21.27;46.12;102088.47;6208354;23;20050;-64
2022/06/15 09:19:14;;;;;;;5.03;2.38;;;;;;;21.30;46.53;102084.75;6209478;23;20071;-62
2022/06/15 09:21:50;;;;;;;5.88;2.08;;;;;;;21.27;47.24;102072.41;6207709;23;20050;-64
2022/06/15 09:24:28;;;;;;;6.60;2.00;;;;;;;21.76;47.22;102070.38;6234395;23;20498;-64
2022/06/15 09:26:56;;;;;;;5.75;2.15;;;;;;;21.85;48.13;102068.94;6208104;23;20035;-64
2022/06/15 09:29:26;;;;;;;5.83;2.10;;;;;;;22.07;46.31;102071.13;6235343;23;20022;-64
2022/06/15 09:32:02;;;;;;;6.30;1.90;;;;;;;21.52;48.08;102070.91;6208151;23;20455;-64
2022/06/15 09:34:32;;;;;;;8.18;2.40;;;;;;;21.89;47.03;102070.50;6210359;23;20004;-63
2022/06/15 09:36:58;;;;;;;8.13;2.25;;;;;;;22.17;45.63;102068.72;6210431;23;20336;-63
2022/06/15 09:39:25;;;;;;;6.38;2.17;;;;;;;22.12;45.97;102062.78;6236480;23;20004;-63
2022/06/15 09:42:04;;;;;;;8.00;2.38;;;;;;;21.87;46.09;102067.03;6236538;23;20773;-64
2022/06/15 09:44:48;;;;;;;9.25;2.13;;;;;;;22.21;44.66;102066.69;6234437;23;20298;-64
2022/06/15 09:47:22;;;;;;;8.73;2.50;;;;;;;22.19;44.93;102057.91;6235851;23;20424;-63
2022/06/15 09:49:54;;;;;;;5.25;2.45;;;;;;;22.04;44.75;102065.09;6235573;23;20011;-63
2022/06/15 09:52:40;;;;;;;7.85;2.15;;;;;;;22.12;45.59;102068.16;6236382;23;20114;-66
2022/06/15 09:55:23;;;;;;;5.55;2.08;;;;;;;22.46;44.01;102065.13;6235204;23;20012;-64
2022/06/15 09:57:49;;;;;;;5.93;2.33;;;;;;;22.69;43.64;102065.44;6209563;23;20008;-65
2022/06/15 10:00:15;;;;;;;7.72;2.45;;;;;;;22.25;44.87;102062.00;6208180;23;20008;-63
2022/06/15 10:02:44;;;;;;;5.35;1.83;;;;;;;22.11;43.71;102062.88;6236383;23;20004;-63
2022/06/15 10:05:21;;;;;;;7.55;2.30;;;;;;;22.64;42.89;102065.78;6233449;23;20040;-62
2022/06/15 10:07:46;;;;;;;4.70;1.80;;;;;;;22.94;43.00;102069.19;6234835;23;20008;-63
2022/06/15 10:10:31;;;;;;;3.40;1.67;;;;;;;22.83;42.67;102067.22;6234362;23;20011;-64
2022/06/15 10:13:04;;;;;;;8.15;1.92;;;;;;;23.28;41.78;102063.31;6234302;23;20040;-64
2022/06/15 10:15:48;;;;;;;7.30;2.22;;;;;;;23.49;42.42;102055.63;6236054;22;20010;-64
2022/06/15 10:18:20;;;;;;;8.18;2.30;;;;;;;23.40;45.15;102062.50;6235203;22;20004;-63
2022/06/15 10:20:55;;;;;;;5.35;2.00;;;;;;;23.44;41.35;102072.06;6234638;23;20000;-64
2022/06/15 10:23:24;;;;;;;4.72;1.65;;;;;;;23.68;40.25;102068.63;6237338;22;20011;-64
2022/06/15 10:25:51;;;;;;;;;;;;;;;23.61;39.78;102056.59;6239264;22;20004;-71
2022/06/15 10:28:27;;;;;;;7.60;2.17;;;;;;;23.71;40.78;102063.03;6235684;23;19914;-64
2022/06/15 10:30:56;;;;;;;5.50;2.08;;;;;;;23.75;40.01;102068.19;6236096;23;20478;-64
2022/06/15 10:33:21;;;;;;;6.38;1.92;;;;;;;24.15;39.90;102064.50;6237016;23;20335;-67
2022/06/15 10:35:59;;;;;;;4.90;1.63;;;;;;;24.35;40.03;102068.44;6236770;22;20005;-65
2022/06/15 10:38:26;;;;;;;6.03;2.05;;;;;;;24.33;39.84;102073.06;6236251;23;20004;-66
2022/06/15 10:40:54;;;;;;;4.53;1.77;;;;;;;24.44;40.47;102070.41;6238592;22;20034;-64
2022/06/15 10:43:25;;;;;;;8.10;2.40;;;;;;;24.36;39.84;102062.06;6237716;22;20027;-72
2022/06/15 10:46:04;;;;;;;7.43;2.00;;;;;;;24.08;39.39;102061.38;6236118;23;20004;-68
2022/06/15 10:48:48;;;;;;;9.65;2.22;;;;;;;24.21;41.38;102064.94;6238091;22;20008;-74
2022/06/15 10:51:16;;;;;;;4.38;1.88;;;;;;;24.26;40.38;102061.03;6234892;23;20005;-71
2022/06/15 10:54:11;;;;;;;6.18;2.38;;;;;;;24.46;38.81;102055.03;6235980;23;20012;-67
2022/06/15 11:02:26;;;;;;;4.05;1.80;;;;;;;24.19;38.93;102058.78;6237869;23;20023;-70
2022/06/15 11:04:55;;;;;;;4.28;1.73;;;;;;;24.37;38.59;102058.38;6238694;22;20097;-65
2022/06/15 11:07:21;;;;;;;6.80;2.13;;;;;;;24.08;38.78;102059.53;6237832;23;20484;-62
2022/06/15 11:09:55;;;;;;;8.40;2.05;;;;;;;24.73;38.86;102058.44;6236981;23;20011;-64
2022/06/15 11:12:33;;;;;;;7.55;1.77;;;;;;;24.93;39.30;102062.38;6237023;23;20365;-66
2022/06/15 11:15:01;;;;;;;6.00;2.00;;;;;;;24.74;38.83;102055.63;6236047;23;20018;-64
2022/06/15 11:20:34;;;;;;;5.55;1.60;;;;;;;24.91;39.36;102056.22;6237108;23;20016;-77
2022/06/15 11:23:09;;;;;;;12.20;2.10;;;;;;;24.10;39.03;102056.72;6237871;23;20061;-68
2022/06/15 11:25:43;;;;;;;8.73;1.98;;;;;;;24.35;40.47;102044.19;6211015;23;20459;-66
2022/06/15 11:28:13;;;;;;;6.82;1.85;;;;;;;25.03;39.34;102040.06;6209486;23;20012;-66
2022/06/15 11:30:49;;;;;;;9.90;2.17;;;;;;;25.20;40.39;102044.16;6236835;23;20433;-67
2022/06/15 11:33:34;;;;;;;7.63;2.22;;;;;;;25.07;38.23;102037.03;6209723;23;20035;-67
2022/06/15 11:36:08;;;;;;;3.97;1.95;;;;;;;24.59;38.29;102029.88;6209007;23;20000;-69
2022/06/15 11:38:48;;;;;;;6.85;2.70;;;;;;;25.07;36.81;102034.31;6210897;23;20007;-68
2022/06/15 11:41:28;;;;;;;5.38;1.60;;;;;;;25.15;38.92;102031.03;6210268;23;20137;-69
2022/06/15 11:43:55;;;;;;;5.28;1.73;;;;;;;25.32;37.30;102026.16;6209132;23;20000;-69
2022/06/15 11:46:52;;;;;;;3.63;1.90;;;;;;;25.30;38.85;102034.38;6237114;23;20099;-71
2022/06/15 11:49:37;;;;;;;6.57;1.95;;;;;;;25.24;40.11;102041.13;6194048;23;20015;-69